createdAt,value
2023-05-19T01:00:07.255Z,5.00
2023-05-19T01:01:07.314Z,4.10
2023-05-19T01:02:07.189Z,5.00
2023-05-19T01:03:07.267Z,7.20
2023-05-19T01:04:07.225Z,5.70
2023-05-19T01:05:07.182Z,6.20
2023-05-19T01:06:07.195Z,4.90
2023-05-19T01:07:07.142Z,6.20
2023-05-19T01:08:07.125Z,4.80
2023-05-19T01:09:07.126Z,5.30
2023-05-19T01:10:07.121Z,5.20
2023-05-19T01:11:07.213Z,5.10
2023-05-19T01:12:07.096Z,5.80
2023-05-19T01:13:07.093Z,7.10
2023-05-19T01:14:07.060Z,4.30
2023-05-19T01:15:07.052Z,5.20
2023-05-19T01:16:07.199Z,6.20
2023-05-19T01:17:07.040Z,5.20
2023-05-19T01:18:07.055Z,4.90
2023-05-19T01:19:07.049Z,7.10
2023-05-19T01:20:07.044Z,3.70
2023-05-19T01:21:06.993Z,4.80
2023-05-19T01:22:07.037Z,6.10
2023-05-19T01:23:06.974Z,4.80
2023-05-19T01:24:06.983Z,5.20
2023-05-19T01:25:06.971Z,5.40
2023-05-19T01:26:06.954Z,6.20
2023-05-19T01:27:06.953Z,4.30
2023-05-19T01:28:06.911Z,4.00
2023-05-19T01:29:06.908Z,5.20
2023-05-19T01:30:06.900Z,5.40
2023-05-19T01:31:06.893Z,4.30
2023-05-19T01:32:06.922Z,5.50
2023-05-19T01:33:06.954Z,6.70
2023-05-19T01:34:06.848Z,6.00
2023-05-19T01:35:06.876Z,5.50
2023-05-19T01:36:06.828Z,7.30
2023-05-19T01:37:06.815Z,5.90
2023-05-19T01:38:06.801Z,6.70
2023-05-19T01:39:06.804Z,5.10
2023-05-19T01:40:06.797Z,4.60
2023-05-19T01:41:06.792Z,5.00
2023-05-19T01:42:06.774Z,5.30
2023-05-19T01:43:06.764Z,5.00
2023-05-19T01:44:06.737Z,6.40
2023-05-19T01:45:06.786Z,4.50
2023-05-19T01:46:06.747Z,5.30
2023-05-19T01:47:06.718Z,5.30
2023-05-19T01:48:09.904Z,4.30
2023-05-19T01:49:06.689Z,8.00
2023-05-19T01:50:06.670Z,6.10
2023-05-19T01:51:06.708Z,5.20
2023-05-19T01:53:22.081Z,5.00
2023-05-19T01:54:22.049Z,5.10
2023-05-19T01:55:22.036Z,5.70
2023-05-19T01:56:22.020Z,5.30
2023-05-19T01:57:22.024Z,4.30
2023-05-19T01:58:22.014Z,5.60
2023-05-19T01:59:21.992Z,5.00
2023-05-19T02:00:21.982Z,5.70
2023-05-19T02:01:22.040Z,5.90
2023-05-19T02:02:21.970Z,5.30
2023-05-19T02:03:21.992Z,3.90
2023-05-19T02:04:21.965Z,3.70
2023-05-19T02:05:22.533Z,5.60
2023-05-19T02:06:21.918Z,4.80
2023-05-19T02:07:21.903Z,6.60
2023-05-19T02:08:21.908Z,7.10
2023-05-19T02:09:21.883Z,6.70
2023-05-19T02:10:21.880Z,5.80
2023-05-19T02:11:21.872Z,4.80
2023-05-19T02:12:21.859Z,6.00
2023-05-19T02:13:21.833Z,4.90
2023-05-19T02:14:21.824Z,5.40
2023-05-19T02:15:21.832Z,4.30
2023-05-19T02:16:21.950Z,6.70
2023-05-19T02:17:21.813Z,4.30
2023-05-19T02:18:21.779Z,5.70
2023-05-19T02:19:21.854Z,4.70
2023-05-19T02:20:21.758Z,4.30
2023-05-19T02:21:21.758Z,5.30
2023-05-19T02:22:21.747Z,5.70
2023-05-19T02:23:21.725Z,6.60
2023-05-19T02:24:21.720Z,4.30
2023-05-19T02:25:21.702Z,4.80
2023-05-19T02:26:21.694Z,5.20
2023-05-19T02:27:21.684Z,6.30
2023-05-19T02:28:21.665Z,5.10
2023-05-19T02:29:21.684Z,5.40
2023-05-19T02:30:21.646Z,5.50
2023-05-19T02:31:21.673Z,6.50
2023-05-19T02:32:21.647Z,5.80
2023-05-19T02:33:21.613Z,6.50
2023-05-19T02:34:21.607Z,3.90
2023-05-19T02:35:21.618Z,5.10
2023-05-19T02:36:21.608Z,5.20
2023-05-19T02:37:21.572Z,5.70
2023-05-19T02:38:21.559Z,5.30
2023-05-19T02:39:21.554Z,5.70
2023-05-19T02:40:21.550Z,5.60
2023-05-19T02:41:21.528Z,5.60
2023-05-19T02:42:21.522Z,4.60
2023-05-19T02:43:21.506Z,4.90
2023-05-19T02:44:21.507Z,4.40
2023-05-19T02:45:21.490Z,4.70
2023-05-19T02:46:21.565Z,4.50
2023-05-19T02:47:21.538Z,5.90
2023-05-19T02:48:21.448Z,4.70
2023-05-19T02:49:21.476Z,5.90
2023-05-19T02:50:21.426Z,5.90
2023-05-19T02:51:21.471Z,4.60
2023-05-19T02:52:21.417Z,4.60
2023-05-19T02:53:21.398Z,4.90
2023-05-19T02:54:21.384Z,3.80
2023-05-19T02:55:21.375Z,5.60
2023-05-19T02:56:21.379Z,4.70
2023-05-19T02:57:21.357Z,3.90
2023-05-19T02:58:21.341Z,5.60
2023-05-19T02:59:21.396Z,3.20
2023-05-19T03:00:22.053Z,4.10
2023-05-19T03:01:21.358Z,4.70
2023-05-19T03:02:21.306Z,4.00
2023-05-19T03:03:21.400Z,5.80
2023-05-19T03:04:21.273Z,6.20
2023-05-19T03:05:21.264Z,4.70
2023-05-19T03:06:21.253Z,5.90
2023-05-19T03:07:21.296Z,4.80
2023-05-19T03:08:21.251Z,3.60
2023-05-19T03:09:21.223Z,6.50
2023-05-19T03:10:21.206Z,4.10
2023-05-19T03:11:21.202Z,4.50
2023-05-19T03:12:21.203Z,6.60
2023-05-19T03:13:21.194Z,5.60
2023-05-19T03:14:21.157Z,3.90
2023-05-19T03:15:21.172Z,4.60
2023-05-19T03:16:21.205Z,5.20
2023-05-19T03:17:21.230Z,5.80
2023-05-19T03:18:21.183Z,5.20
2023-05-19T03:19:21.265Z,5.40
2023-05-19T03:20:21.128Z,5.10
2023-05-19T03:21:21.135Z,5.90
2023-05-19T03:22:21.080Z,5.90
2023-05-19T03:23:21.098Z,5.60
2023-05-19T03:24:21.060Z,4.20
2023-05-19T03:25:21.066Z,5.00
2023-05-19T03:26:21.049Z,4.90
2023-05-19T03:27:21.039Z,5.90
2023-05-19T03:28:21.040Z,5.70
2023-05-19T03:29:21.013Z,6.00
2023-05-19T03:30:20.997Z,3.90
2023-05-19T03:31:21.019Z,4.70
2023-05-19T03:32:21.142Z,6.20
2023-05-19T03:33:21.109Z,4.80
2023-05-19T03:34:20.970Z,4.70
2023-05-19T03:35:20.940Z,6.50
2023-05-19T03:36:20.940Z,4.90
2023-05-19T03:37:20.948Z,5.70
2023-05-19T03:38:20.921Z,6.40
2023-05-19T03:39:20.925Z,5.60
2023-05-19T03:40:20.889Z,6.70
2023-05-19T03:41:20.880Z,4.00
2023-05-19T03:42:20.866Z,3.40
2023-05-19T03:43:20.873Z,5.70
2023-05-19T03:44:20.844Z,7.20
2023-05-19T03:45:20.835Z,5.60
2023-05-19T03:46:21.049Z,6.00
2023-05-19T03:47:20.838Z,7.20
2023-05-19T03:48:21.462Z,5.60
2023-05-19T03:49:20.827Z,5.10
2023-05-19T03:50:20.814Z,4.70
2023-05-19T03:51:20.777Z,7.20
2023-05-19T03:52:20.787Z,8.40
2023-05-19T03:53:28.074Z,5.70
2023-05-19T03:54:20.735Z,7.00
2023-05-19T03:55:20.743Z,6.10
2023-05-19T03:56:20.715Z,7.70
2023-05-19T03:57:20.725Z,3.70
2023-05-19T03:58:20.689Z,5.10
2023-05-19T03:59:20.702Z,5.10
2023-05-19T04:00:20.670Z,5.50
2023-05-19T04:01:20.671Z,6.20
2023-05-19T04:02:20.700Z,5.30
2023-05-19T04:03:20.852Z,5.30
2023-05-19T04:04:20.683Z,5.50
2023-05-19T04:05:21.611Z,5.50
2023-05-19T04:06:20.617Z,4.70
2023-05-19T04:07:20.608Z,5.50
2023-05-19T04:08:20.594Z,8.70
2023-05-19T04:09:20.570Z,5.80
2023-05-19T04:10:20.561Z,5.40
2023-05-19T04:11:20.594Z,5.10
2023-05-19T04:12:20.540Z,4.80
2023-05-19T04:13:20.562Z,7.40
2023-05-19T04:14:20.532Z,5.40
2023-05-19T04:15:20.510Z,5.00
2023-05-19T04:16:20.558Z,6.50
2023-05-19T04:17:20.507Z,5.80
2023-05-19T04:18:20.474Z,4.70
2023-05-19T04:19:20.478Z,6.50
2023-05-19T04:20:20.460Z,5.20
2023-05-19T04:21:20.457Z,4.80
2023-05-19T04:22:20.430Z,6.20
2023-05-19T04:23:20.425Z,6.90
2023-05-19T04:24:20.412Z,6.40
2023-05-19T04:25:20.432Z,5.60
2023-05-19T04:26:20.432Z,6.10
2023-05-19T04:27:20.413Z,6.10
2023-05-19T04:28:20.375Z,4.80
2023-05-19T04:29:20.632Z,6.70
2023-05-19T04:30:20.357Z,4.60
2023-05-19T04:31:20.472Z,5.10
2023-05-19T04:32:20.358Z,4.90
2023-05-19T04:33:20.313Z,5.50
2023-05-19T04:34:20.314Z,6.40
2023-05-19T04:35:20.304Z,7.70
2023-05-19T04:36:20.282Z,8.60
2023-05-19T04:37:20.268Z,7.70
2023-05-19T04:38:20.294Z,5.60
2023-05-19T04:39:20.253Z,5.10
2023-05-19T04:40:20.249Z,6.60
2023-05-19T04:41:20.230Z,6.20
2023-05-19T04:42:20.252Z,5.90
2023-05-19T04:43:20.234Z,6.20
2023-05-19T04:44:20.194Z,6.60
2023-05-19T04:45:20.215Z,10.60
2023-05-19T04:46:20.199Z,7.70
2023-05-19T04:47:20.213Z,7.70
2023-05-19T04:48:20.176Z,9.50
2023-05-19T04:49:20.178Z,6.50
2023-05-19T04:50:20.130Z,6.80
2023-05-19T04:51:20.124Z,6.50
2023-05-19T04:52:20.125Z,6.30
2023-05-19T04:53:20.103Z,6.50
2023-05-19T04:54:20.087Z,5.50
2023-05-19T04:55:20.077Z,7.00
2023-05-19T04:56:20.100Z,7.10
2023-05-19T04:57:20.052Z,6.30
2023-05-19T04:58:20.042Z,5.30
2023-05-19T04:59:20.053Z,6.00
2023-05-19T05:00:20.045Z,6.60
2023-05-19T05:01:20.057Z,6.20
2023-05-19T05:02:20.124Z,6.40
2023-05-19T05:03:20.152Z,6.70
2023-05-19T05:04:19.975Z,4.80
2023-05-19T05:05:19.996Z,6.40
2023-05-19T05:06:19.946Z,7.30
2023-05-19T05:07:19.942Z,5.50
2023-05-19T05:08:19.952Z,5.80
2023-05-19T05:09:20.010Z,4.60
2023-05-19T05:10:19.907Z,6.80
2023-05-19T05:11:19.954Z,5.50
2023-05-19T05:12:19.889Z,5.40
2023-05-19T05:13:19.872Z,7.70
2023-05-19T05:14:19.861Z,7.50
2023-05-19T05:15:19.932Z,6.10
2023-05-19T05:16:19.944Z,6.90
2023-05-19T05:17:19.839Z,7.30
2023-05-19T05:18:19.853Z,7.50
2023-05-19T05:19:19.832Z,6.50
2023-05-19T05:20:19.793Z,4.40
2023-05-19T05:21:19.806Z,5.60
2023-05-19T05:22:19.777Z,6.50
2023-05-19T05:23:19.774Z,5.20
2023-05-19T05:24:19.758Z,6.50
2023-05-19T05:25:19.753Z,7.60
2023-05-19T05:26:19.796Z,7.20
2023-05-19T05:27:19.717Z,7.50
2023-05-19T05:28:19.706Z,6.50
2023-05-19T05:29:19.717Z,5.60
2023-05-19T05:30:19.700Z,6.00
2023-05-19T05:31:19.711Z,6.10
2023-05-19T05:32:19.714Z,6.20
2023-05-19T05:33:19.753Z,25.40
2023-05-19T05:34:19.648Z,22.30
2023-05-19T05:35:19.637Z,17.10
2023-05-19T05:36:19.629Z,7.40
2023-05-19T05:37:19.608Z,16.40
2023-05-19T05:38:19.600Z,14.20
2023-05-19T05:39:19.588Z,9.60
2023-05-19T05:40:19.594Z,13.70
2023-05-19T05:41:19.604Z,14.20
2023-05-19T05:42:19.564Z,8.10
2023-05-19T05:43:19.554Z,4.80
2023-05-19T05:44:19.555Z,7.20
2023-05-19T05:45:19.530Z,6.40
2023-05-19T05:46:19.558Z,7.60
2023-05-19T05:47:19.630Z,6.40
2023-05-19T05:48:19.497Z,6.00
2023-05-19T05:49:19.485Z,5.00
2023-05-19T05:50:19.483Z,6.50
2023-05-19T05:51:19.504Z,5.30
2023-05-19T05:52:19.442Z,6.70
2023-05-19T05:53:19.446Z,6.10
2023-05-19T05:54:26.927Z,5.70
2023-05-19T05:55:19.412Z,6.30
2023-05-19T05:56:19.400Z,5.10
2023-05-19T05:57:19.404Z,5.40
2023-05-19T05:58:19.448Z,7.40
2023-05-19T05:59:19.374Z,7.30
2023-05-19T06:00:19.362Z,8.10
2023-05-19T06:01:19.351Z,6.40
2023-05-19T06:02:19.394Z,4.80
2023-05-19T06:03:19.379Z,5.90
2023-05-19T06:04:19.317Z,7.30
2023-05-19T06:05:19.344Z,5.50
2023-05-19T06:06:19.309Z,7.40
2023-05-19T06:07:19.299Z,5.20
2023-05-19T06:08:19.300Z,7.40
2023-05-19T06:09:19.269Z,5.80
2023-05-19T06:10:19.257Z,8.00
2023-05-19T06:11:19.265Z,5.30
2023-05-19T06:12:19.240Z,5.80
2023-05-19T06:13:19.235Z,5.80
2023-05-19T06:14:19.231Z,6.40
2023-05-19T06:15:19.210Z,5.90
2023-05-19T06:16:19.225Z,5.50
2023-05-19T06:17:19.192Z,4.70
2023-05-19T06:18:19.163Z,4.70
2023-05-19T06:19:19.217Z,5.50
2023-05-19T06:20:19.160Z,5.00
2023-05-19T06:21:19.145Z,4.30
2023-05-19T06:22:19.122Z,4.50
2023-05-19T06:23:19.112Z,4.10
2023-05-19T06:24:19.096Z,3.30
2023-05-19T06:25:19.098Z,5.20
2023-05-19T06:26:19.096Z,5.60
2023-05-19T06:27:19.083Z,5.50
2023-05-19T06:28:19.054Z,3.20
2023-05-19T06:29:19.046Z,4.40
2023-05-19T06:30:19.034Z,4.90
2023-05-19T06:31:19.077Z,5.10
2023-05-19T06:32:19.052Z,7.30
2023-05-19T06:33:19.007Z,5.60
2023-05-19T06:34:19.010Z,4.20
2023-05-19T06:35:19.005Z,3.80
2023-05-19T06:36:18.984Z,3.70
2023-05-19T06:37:18.961Z,3.60
2023-05-19T06:38:18.957Z,5.50
2023-05-19T06:39:18.944Z,5.60
2023-05-19T06:40:18.924Z,4.70
2023-05-19T06:41:18.934Z,5.80
2023-05-19T06:42:18.904Z,4.80
2023-05-19T06:43:18.889Z,3.30
2023-05-19T06:44:21.055Z,4.00
2023-05-19T06:45:18.875Z,3.50
2023-05-19T06:46:18.901Z,5.80
2023-05-19T06:47:18.856Z,3.30
2023-05-19T06:48:18.837Z,5.50
2023-05-19T06:49:18.822Z,3.30
2023-05-19T06:50:18.830Z,3.90
2023-05-19T06:51:18.883Z,5.60
2023-05-19T06:52:18.799Z,2.60
2023-05-19T06:53:18.792Z,5.70
2023-05-19T06:54:18.770Z,4.80
2023-05-19T06:55:18.757Z,2.90
2023-05-19T06:56:18.781Z,3.70
2023-05-19T06:57:18.740Z,3.50
2023-05-19T06:58:18.728Z,3.90
2023-05-19T06:59:18.733Z,3.00
2023-05-19T07:00:20.516Z,3.90
2023-05-19T07:01:18.712Z,4.60
2023-05-19T07:02:18.757Z,4.30
2023-05-19T07:03:18.821Z,4.70
2023-05-19T07:04:18.663Z,4.90
2023-05-19T07:05:18.652Z,3.60
2023-05-19T07:06:18.651Z,5.50
2023-05-19T07:07:18.652Z,2.70
2023-05-19T07:08:18.633Z,3.30
2023-05-19T07:09:18.608Z,3.40
2023-05-19T07:10:18.607Z,3.00
2023-05-19T07:11:18.584Z,5.10
2023-05-19T07:12:18.576Z,3.50
2023-05-19T07:13:18.576Z,3.50
2023-05-19T07:14:18.556Z,3.60
2023-05-19T07:15:18.540Z,3.10
2023-05-19T07:16:18.580Z,4.10
2023-05-19T07:17:18.534Z,3.10
2023-05-19T07:18:18.510Z,3.80
2023-05-19T07:19:18.562Z,3.10
2023-05-19T07:20:18.498Z,3.00
2023-05-19T07:21:18.482Z,2.80
2023-05-19T07:22:18.479Z,2.60
2023-05-19T07:23:18.490Z,3.30
2023-05-19T07:24:18.453Z,3.20
2023-05-19T07:25:18.429Z,3.90
2023-05-19T07:26:18.422Z,3.40
2023-05-19T07:27:18.529Z,4.30
2023-05-19T07:28:18.423Z,2.80
2023-05-19T07:29:18.387Z,2.70
2023-05-19T07:30:18.379Z,3.50
2023-05-19T07:31:18.369Z,3.10
2023-05-19T07:32:18.432Z,3.60
2023-05-19T07:33:18.354Z,5.50
2023-05-19T07:34:18.333Z,2.90
2023-05-19T07:35:18.320Z,3.90
2023-05-19T07:36:18.326Z,3.70
2023-05-19T07:37:18.296Z,2.30
2023-05-19T07:38:18.292Z,4.00
2023-05-19T07:39:18.426Z,4.20
2023-05-19T07:40:18.292Z,2.60
2023-05-19T07:41:18.265Z,3.40
2023-05-19T07:42:18.246Z,2.20
2023-05-19T07:43:18.248Z,2.20
2023-05-19T07:44:18.237Z,3.80
2023-05-19T07:45:18.252Z,3.30
2023-05-19T07:46:18.316Z,3.70
2023-05-19T07:47:18.182Z,3.00
2023-05-19T07:48:18.252Z,2.40
2023-05-19T07:49:18.174Z,3.40
2023-05-19T07:50:18.157Z,2.80
2023-05-19T07:51:18.157Z,2.20
2023-05-19T07:52:18.137Z,4.90
2023-05-19T07:53:18.143Z,3.30
2023-05-19T07:54:18.111Z,4.30
2023-05-19T07:55:25.637Z,2.60
2023-05-19T07:56:18.097Z,3.00
2023-05-19T07:57:18.077Z,3.20
2023-05-19T07:58:18.081Z,3.90
2023-05-19T07:59:18.051Z,3.40
2023-05-19T08:00:18.055Z,2.90
2023-05-19T08:01:18.040Z,4.60
2023-05-19T08:02:18.054Z,3.50
2023-05-19T08:03:18.486Z,5.30
2023-05-19T08:04:18.232Z,3.00
2023-05-19T08:05:17.987Z,2.20
2023-05-19T08:06:17.985Z,3.40
2023-05-19T08:07:17.994Z,3.30
2023-05-19T08:08:17.957Z,3.30
2023-05-19T08:09:17.957Z,3.50
2023-05-19T08:10:17.936Z,2.90
2023-05-19T08:11:17.936Z,4.60
2023-05-19T08:12:17.922Z,3.60
2023-05-19T08:13:17.904Z,2.80
2023-05-19T08:14:17.930Z,3.10
2023-05-19T08:15:17.878Z,3.80
2023-05-19T08:16:17.925Z,3.80
2023-05-19T08:17:17.860Z,3.00
2023-05-19T08:18:17.850Z,2.50
2023-05-19T08:19:17.899Z,1.80
2023-05-19T08:20:17.860Z,3.20
2023-05-19T08:21:17.820Z,3.60
2023-05-19T08:22:17.836Z,3.00
2023-05-19T08:23:17.821Z,2.40
2023-05-19T08:24:17.795Z,4.30
2023-05-19T08:25:17.789Z,3.70
2023-05-19T08:26:17.766Z,2.80
2023-05-19T08:27:17.779Z,2.80
2023-05-19T08:28:17.746Z,2.40
2023-05-19T08:29:17.765Z,3.20
2023-05-19T08:30:17.724Z,1.90
2023-05-19T08:31:19.940Z,4.30
2023-05-19T08:32:17.722Z,3.00
2023-05-19T08:33:17.695Z,2.10
2023-05-19T08:34:17.679Z,2.30
2023-05-19T08:35:17.683Z,4.00
2023-05-19T08:36:17.660Z,3.90
2023-05-19T08:37:17.639Z,3.00
2023-05-19T08:38:17.648Z,2.90
2023-05-19T08:39:17.627Z,2.20
2023-05-19T08:40:17.634Z,3.10
2023-05-19T08:41:17.612Z,2.10
2023-05-19T08:42:17.591Z,3.30
2023-05-19T08:43:17.647Z,4.10
2023-05-19T08:44:19.058Z,2.20
2023-05-19T08:45:17.584Z,3.30
2023-05-19T08:46:17.625Z,2.90
2023-05-19T08:47:17.531Z,2.40
2023-05-19T08:48:17.655Z,2.70
2023-05-19T08:49:17.523Z,4.30
2023-05-19T08:50:17.531Z,1.80
2023-05-19T08:51:17.489Z,3.40
2023-05-19T08:52:17.500Z,3.20
2023-05-19T08:53:31.761Z,2.60
2023-05-19T08:54:17.477Z,3.10
2023-05-19T08:55:17.444Z,3.00
2023-05-19T08:56:18.232Z,3.60
2023-05-19T08:57:17.421Z,1.50
2023-05-19T08:58:17.429Z,2.90
2023-05-19T08:59:17.454Z,1.60
2023-05-19T09:00:17.394Z,2.70
2023-05-19T09:01:17.468Z,2.30
2023-05-19T09:02:17.381Z,3.10
2023-05-19T09:03:23.244Z,2.50
2023-05-19T09:04:17.517Z,3.10
2023-05-19T09:05:17.369Z,2.50
2023-05-19T09:06:17.356Z,2.70
2023-05-19T09:07:17.314Z,2.10
2023-05-19T09:08:17.317Z,2.40
2023-05-19T09:09:17.338Z,4.60
2023-05-19T09:10:17.286Z,2.90
2023-05-19T09:11:17.301Z,2.80
2023-05-19T09:12:17.266Z,2.10
2023-05-19T09:13:17.248Z,3.80
2023-05-19T09:14:17.257Z,3.20
2023-05-19T09:15:17.255Z,3.60
2023-05-19T09:16:17.281Z,2.20
2023-05-19T09:17:17.209Z,2.40
2023-05-19T09:18:17.238Z,1.90
2023-05-19T09:19:17.326Z,2.80
2023-05-19T09:20:17.196Z,4.60
2023-05-19T09:21:17.160Z,2.60
2023-05-19T09:22:17.159Z,2.70
2023-05-19T09:23:17.153Z,3.70
2023-05-19T09:24:17.141Z,3.70
2023-05-19T09:25:17.145Z,2.90
2023-05-19T09:26:17.124Z,3.20
2023-05-19T09:27:17.099Z,1.70
2023-05-19T09:28:17.088Z,2.80
2023-05-19T09:29:17.099Z,3.00
2023-05-19T09:30:17.069Z,2.60
2023-05-19T09:31:17.109Z,4.20
2023-05-19T09:32:17.118Z,3.00
2023-05-19T09:33:17.103Z,4.30
2023-05-19T09:34:17.036Z,3.30
2023-05-19T09:35:17.015Z,1.70
2023-05-19T09:36:17.006Z,3.10
2023-05-19T09:37:17.012Z,3.50
2023-05-19T09:38:16.998Z,3.30
2023-05-19T09:39:16.969Z,4.00
2023-05-19T09:40:16.969Z,3.10
2023-05-19T09:41:16.954Z,1.80
2023-05-19T09:42:16.971Z,2.60
2023-05-19T09:43:16.936Z,1.50
2023-05-19T09:44:16.949Z,2.20
2023-05-19T09:45:16.914Z,1.90
2023-05-19T09:46:16.914Z,1.50
2023-05-19T09:47:16.999Z,2.10
2023-05-19T09:48:16.877Z,2.40
2023-05-19T09:49:16.872Z,4.50
2023-05-19T09:50:16.883Z,2.70
2023-05-19T09:51:16.840Z,3.10
2023-05-19T09:52:16.828Z,4.90
2023-05-19T09:53:16.814Z,2.70
2023-05-19T09:54:16.819Z,3.00
2023-05-19T09:55:16.793Z,3.70
2023-05-19T09:56:24.315Z,2.80
2023-05-19T09:57:16.775Z,2.60
2023-05-19T09:58:16.764Z,2.60
2023-05-19T09:59:16.762Z,3.30
2023-05-19T10:00:16.737Z,3.10
2023-05-19T10:01:16.737Z,2.80
2023-05-19T10:02:16.744Z,5.50
2023-05-19T10:03:16.792Z,3.70
2023-05-19T10:04:16.698Z,2.20
2023-05-19T10:05:16.838Z,1.80
2023-05-19T10:06:16.675Z,3.90
2023-05-19T10:07:16.660Z,1.90
2023-05-19T10:08:16.680Z,2.20
2023-05-19T10:09:16.676Z,4.00
2023-05-19T10:10:16.823Z,2.30
2023-05-19T10:11:16.614Z,2.50
2023-05-19T10:12:16.623Z,2.70
2023-05-19T10:13:16.642Z,4.20
2023-05-19T10:14:16.593Z,1.80
2023-05-19T10:15:16.577Z,2.20
2023-05-19T10:16:16.614Z,2.70
2023-05-19T10:17:16.555Z,1.80
2023-05-19T10:18:16.558Z,2.00
2023-05-19T10:19:16.663Z,2.00
2023-05-19T10:20:16.601Z,2.50
2023-05-19T10:21:16.527Z,2.30
2023-05-19T10:22:16.499Z,2.60
2023-05-19T10:23:16.499Z,2.50
2023-05-19T10:24:16.475Z,3.10
2023-05-19T10:25:17.303Z,1.80
2023-05-19T10:26:16.468Z,2.80
2023-05-19T10:27:16.452Z,2.10
2023-05-19T10:28:16.467Z,1.60
2023-05-19T10:29:16.420Z,2.50
2023-05-19T10:30:16.732Z,1.70
2023-05-19T10:31:16.426Z,2.90
2023-05-19T10:32:16.518Z,2.70
2023-05-19T10:33:16.454Z,1.90
2023-05-19T10:34:16.370Z,2.50
2023-05-19T10:35:16.416Z,3.90
2023-05-19T10:36:16.354Z,2.70
2023-05-19T10:37:16.360Z,2.40
2023-05-19T10:38:16.341Z,2.70
2023-05-19T10:39:16.315Z,2.80
2023-05-19T10:40:16.308Z,2.90
2023-05-19T10:41:16.303Z,1.80
2023-05-19T10:42:16.287Z,1.70
2023-05-19T10:43:16.298Z,2.40
2023-05-19T10:44:16.259Z,2.10
2023-05-19T10:45:16.258Z,3.20
2023-05-19T10:46:16.268Z,1.60
2023-05-19T10:47:16.290Z,2.00
2023-05-19T10:48:16.279Z,3.60
2023-05-19T10:49:16.207Z,2.30
2023-05-19T10:50:16.213Z,1.60
2023-05-19T10:51:16.210Z,3.80
2023-05-19T10:52:16.185Z,1.70
2023-05-19T10:53:16.165Z,2.10
2023-05-19T10:54:16.164Z,1.50
2023-05-19T10:55:16.146Z,2.10
2023-05-19T10:56:16.152Z,2.30
2023-05-19T10:57:16.135Z,2.20
2023-05-19T10:58:16.113Z,2.40
2023-05-19T10:59:16.103Z,2.30
2023-05-19T11:00:16.088Z,3.40
2023-05-19T11:01:16.097Z,2.80
2023-05-19T11:02:16.129Z,2.70
2023-05-19T11:03:16.137Z,2.10
2023-05-19T11:04:16.136Z,2.80
2023-05-19T11:05:16.069Z,3.80
2023-05-19T11:06:16.025Z,2.90
2023-05-19T11:07:16.060Z,4.30
2023-05-19T11:08:16.036Z,2.70
2023-05-19T11:09:16.008Z,2.10
2023-05-19T11:10:15.980Z,2.10
2023-05-19T11:11:15.972Z,3.20
2023-05-19T11:12:15.961Z,2.50
2023-05-19T11:13:15.965Z,2.20
2023-05-19T11:14:15.965Z,2.20
2023-05-19T11:15:15.929Z,2.80
2023-05-19T11:16:15.948Z,2.60
2023-05-19T11:17:15.915Z,2.50
2023-05-19T11:18:16.149Z,2.70
2023-05-19T11:19:15.939Z,2.00
2023-05-19T11:20:15.880Z,2.10
2023-05-19T11:21:15.899Z,2.40
2023-05-19T11:22:15.851Z,3.00
2023-05-19T11:23:16.060Z,5.40
2023-05-19T11:24:15.844Z,3.10
2023-05-19T11:25:15.820Z,2.00
2023-05-19T11:26:15.825Z,2.40
2023-05-19T11:27:15.797Z,3.20
2023-05-19T11:28:15.784Z,2.00
2023-05-19T11:29:15.776Z,3.30
2023-05-19T11:30:15.772Z,3.50
2023-05-19T11:31:15.769Z,2.50
2023-05-19T11:32:15.777Z,2.80
2023-05-19T11:33:15.809Z,1.80
2023-05-19T11:34:15.729Z,2.10
2023-05-19T11:35:15.734Z,4.20
2023-05-19T11:36:15.704Z,2.30
2023-05-19T11:37:15.706Z,2.80
2023-05-19T11:38:15.685Z,2.00
2023-05-19T11:39:15.699Z,4.20
2023-05-19T11:40:15.692Z,2.80
2023-05-19T11:41:15.652Z,2.00
2023-05-19T11:42:15.649Z,2.00
2023-05-19T11:43:15.649Z,3.90
2023-05-19T11:44:15.614Z,2.20
2023-05-19T11:45:15.604Z,2.50
2023-05-19T11:46:15.642Z,1.80
2023-05-19T11:47:15.579Z,2.00
2023-05-19T11:48:15.688Z,1.60
2023-05-19T11:49:15.560Z,2.80
2023-05-19T11:50:15.555Z,2.90
2023-05-19T11:51:15.549Z,2.60
2023-05-19T11:52:15.529Z,3.30
2023-05-19T11:53:15.521Z,2.60
2023-05-19T11:54:15.833Z,2.80
2023-05-19T11:55:15.525Z,2.20
2023-05-19T11:56:15.478Z,2.40
2023-05-19T11:57:23.002Z,2.20
2023-05-19T11:58:15.456Z,2.20
2023-05-19T11:59:15.457Z,2.00
2023-05-19T12:00:15.437Z,3.60
2023-05-19T12:01:15.428Z,1.90
2023-05-19T12:02:15.456Z,2.20
2023-05-19T12:03:15.629Z,2.30
2023-05-19T12:04:15.390Z,1.40
2023-05-19T12:05:15.480Z,1.50
2023-05-19T12:06:15.452Z,3.20
2023-05-19T12:07:15.381Z,2.90
2023-05-19T12:08:15.351Z,2.90
2023-05-19T12:09:15.342Z,2.50
2023-05-19T12:10:15.369Z,2.80
2023-05-19T12:11:15.342Z,2.60
2023-05-19T12:12:15.327Z,1.90
2023-05-19T12:13:15.311Z,1.50
2023-05-19T12:14:15.284Z,1.70
2023-05-19T12:15:15.274Z,3.40
2023-05-19T12:16:15.316Z,2.00
2023-05-19T12:17:15.256Z,1.40
2023-05-19T12:18:15.255Z,2.20
2023-05-19T12:19:15.265Z,3.10
2023-05-19T12:20:15.228Z,2.30
2023-05-19T12:21:15.211Z,2.20
2023-05-19T12:22:15.204Z,2.20
2023-05-19T12:23:15.232Z,1.30
2023-05-19T12:24:15.173Z,2.10
2023-05-19T12:25:15.194Z,1.90
2023-05-19T12:26:15.154Z,3.50
2023-05-19T12:27:15.166Z,2.20
2023-05-19T12:28:15.150Z,1.40
2023-05-19T12:29:15.138Z,1.50
2023-05-19T12:30:15.139Z,1.80
2023-05-19T12:31:15.234Z,1.80
2023-05-19T12:32:15.092Z,2.40
2023-05-19T12:33:15.250Z,3.00
2023-05-19T12:34:15.063Z,3.10
2023-05-19T12:35:15.095Z,2.60
2023-05-19T12:36:15.043Z,2.40
2023-05-19T12:37:15.042Z,3.20
2023-05-19T12:38:15.040Z,2.10
2023-05-19T12:39:15.015Z,1.70
2023-05-19T12:40:14.998Z,1.80
2023-05-19T12:41:15.044Z,2.30
2023-05-19T12:42:14.979Z,2.20
2023-05-19T12:43:15.061Z,2.00
2023-05-19T12:44:14.963Z,1.50
2023-05-19T12:45:14.972Z,1.90
2023-05-19T12:46:14.960Z,1.50
2023-05-19T12:47:14.977Z,2.40
2023-05-19T12:48:14.960Z,1.20
2023-05-19T12:49:14.909Z,1.50
2023-05-19T12:50:14.891Z,1.80
2023-05-19T12:51:14.882Z,2.10
2023-05-19T12:52:14.872Z,2.30
2023-05-19T12:53:14.886Z,1.80
2023-05-19T12:54:14.930Z,2.10
2023-05-19T12:55:14.891Z,1.20
2023-05-19T12:56:14.826Z,1.40
2023-05-19T12:57:14.821Z,2.70
2023-05-19T12:58:14.821Z,3.10
2023-05-19T12:59:16.950Z,1.80
2023-05-19T13:00:15.869Z,1.30
2023-05-19T13:01:14.962Z,1.30
2023-05-19T13:02:14.821Z,3.50
2023-05-19T13:03:14.867Z,1.80
2023-05-19T13:04:14.799Z,2.00
2023-05-19T13:05:14.789Z,1.50
2023-05-19T13:06:14.766Z,1.80
2023-05-19T13:07:14.723Z,1.80
2023-05-19T13:08:14.698Z,2.40
2023-05-19T13:09:16.915Z,2.00
2023-05-19T13:10:14.726Z,2.70
2023-05-19T13:11:14.670Z,2.30
2023-05-19T13:12:14.657Z,2.90
2023-05-19T13:13:14.647Z,2.60
2023-05-19T13:14:14.651Z,2.50
2023-05-19T13:15:14.662Z,2.50
2023-05-19T13:16:14.684Z,1.90
2023-05-19T13:17:14.603Z,3.20
2023-05-19T13:18:14.622Z,3.80
2023-05-19T13:19:24.881Z,2.90
2023-05-19T13:20:14.587Z,3.80
2023-05-19T13:21:14.583Z,3.10
2023-05-19T13:22:14.545Z,3.40
2023-05-19T13:23:14.946Z,2.90
2023-05-19T13:24:14.524Z,2.00
2023-05-19T13:25:14.523Z,2.10
2023-05-19T13:26:14.502Z,2.90
2023-05-19T13:27:14.509Z,2.10
2023-05-19T13:28:14.481Z,2.10
2023-05-19T13:29:14.485Z,2.00
2023-05-19T13:30:14.457Z,1.80
2023-05-19T13:31:14.534Z,2.20
2023-05-19T13:32:14.440Z,3.50
2023-05-19T13:33:14.450Z,1.80
2023-05-19T13:34:14.444Z,2.10
2023-05-19T13:35:14.454Z,2.20
2023-05-19T13:36:14.399Z,2.20
2023-05-19T13:37:14.458Z,2.30
2023-05-19T13:38:14.381Z,1.90
2023-05-19T13:39:14.387Z,3.00
2023-05-19T13:40:14.391Z,3.10
2023-05-19T13:41:15.921Z,3.30
2023-05-19T13:42:14.342Z,3.50
2023-05-19T13:43:14.325Z,4.10
2023-05-19T13:44:14.336Z,4.10
2023-05-19T13:45:14.304Z,3.00
2023-05-19T13:46:14.379Z,3.80
2023-05-19T13:47:14.362Z,3.30
2023-05-19T13:48:14.327Z,3.00
2023-05-19T13:49:14.304Z,2.80
2023-05-19T13:50:14.285Z,2.30
2023-05-19T13:51:14.250Z,1.60
2023-05-19T13:52:14.226Z,1.40
2023-05-19T13:53:14.213Z,2.60
2023-05-19T13:54:14.200Z,1.30
2023-05-19T13:55:14.218Z,2.90
2023-05-19T13:56:14.190Z,2.00
2023-05-19T13:57:14.181Z,5.90
2023-05-19T13:58:21.666Z,10.40
2023-05-19T13:59:14.148Z,40.50
2023-05-19T14:00:14.154Z,2.70
2023-05-19T14:01:14.172Z,4.90
2023-05-19T14:02:14.113Z,1.40
2023-05-19T14:03:14.204Z,2.70
2023-05-19T14:04:14.299Z,1.60
2023-05-19T14:05:14.095Z,1.80
2023-05-19T14:06:14.072Z,3.10
2023-05-19T14:07:14.112Z,2.60
2023-05-19T14:08:14.055Z,2.90
2023-05-19T14:09:14.047Z,1.80
2023-05-19T14:10:14.066Z,2.00
2023-05-19T14:11:14.020Z,2.30
2023-05-19T14:12:14.005Z,3.00
2023-05-19T14:13:31.503Z,1.90
2023-05-19T14:14:14.986Z,3.20
2023-05-19T14:15:13.993Z,2.40
2023-05-19T14:16:13.983Z,1.60
2023-05-19T14:17:13.970Z,1.50
2023-05-19T14:18:14.008Z,1.90
2023-05-19T14:19:14.000Z,1.60